sensor_id;sensor_type;location;lat;lon;timestamp;pressure;altitude;pressure_sealevel;temperature;humidity
43153;BME280;28756;49.064;9.290;2023-02-01T00:00:12;99743.63;;;3.26;100.00
43153;BME280;28756;49.064;9.290;2023-02-01T00:02:38;99735.09;;;3.24;100.00
43153;BME280;28756;49.064;9.290;2023-02-01T00:05:08;99737.72;;;3.19;100.00
43153;BME280;28756;49.064;9.290;2023-02-01T00:07:35;99730.03;;;3.18;100.00
43153;BME280;28756;49.064;9.290;2023-02-01T00:10:01;99727.47;;;3.16;100.00
43153;BME280;28756;49.064;9.290;2023-02-01T00:12:29;99717.19;;;3.18;100.00
43153;BME280;28756;49.064;9.290;2023-02-01T00:14:54;99727.53;;;3.13;100.00
43153;BME280;28756;49.064;9.290;2023-02-01T00:17:20;99722.44;;;3.10;100.00
43153;BME280;28756;49.064;9.290;2023-02-01T00:19:46;99718.16;;;3.10;100.00
43153;BME280;28756;49.064;9.290;2023-02-01T00:22:11;99717.28;;;3.10;100.00
43153;BME280;28756;49.064;9.290;2023-02-01T00:24:37;99708.78;;;3.08;100.00
43153;BME280;28756;49.064;9.290;2023-02-01T00:27:03;99711.34;;;3.06;100.00
43153;BME280;28756;49.064;9.290;2023-02-01T00:29:29;99707.81;;;3.15;100.00
43153;BME280;28756;49.064;9.290;2023-02-01T00:31:54;99707.81;;;3.15;100.00
43153;BME280;28756;49.064;9.290;2023-02-01T00:34:20;99691.63;;;3.08;100.00
43153;BME280;28756;49.064;9.290;2023-02-01T00:36:47;99683.06;;;3.06;100.00
43153;BME280;28756;49.064;9.290;2023-02-01T00:39:13;99675.41;;;3.05;100.00
43153;BME280;28756;49.064;9.290;2023-02-01T00:41:39;99677.94;;;3.06;100.00
43153;BME280;28756;49.064;9.290;2023-02-01T00:44:06;99667.78;;;2.98;100.00
43153;BME280;28756;49.064;9.290;2023-02-01T00:46:32;99660.00;;;3.02;100.00
43153;BME280;28756;49.064;9.290;2023-02-01T00:48:57;99666.91;;;2.98;100.00
43153;BME280;28756;49.064;9.290;2023-02-01T00:51:27;99655.06;;;2.89;100.00
43153;BME280;28756;49.064;9.290;2023-02-01T00:53:53;99661.03;;;2.91;100.00
43153;BME280;28756;49.064;9.290;2023-02-01T00:56:19;99663.56;;;2.93;100.00
43153;BME280;28756;49.064;9.290;2023-02-01T00:58:45;99660.88;;;3.00;100.00
43153;BME280;28756;49.064;9.290;2023-02-01T01:01:21;99653.09;;;3.05;100.00
43153;BME280;28756;49.064;9.290;2023-02-01T01:03:51;99663.44;;;3.00;100.00
43153;BME280;28756;49.064;9.290;2023-02-01T01:06:22;99660.81;;;3.07;100.00
43153;BME280;28756;49.064;9.290;2023-02-01T01:08:54;99659.91;;;3.09;100.00
43153;BME280;28756;49.064;9.290;2023-02-01T01:11:25;99663.34;;;3.08;100.00
43153;BME280;28756;49.064;9.290;2023-02-01T01:13:52;99652.09;;;3.15;100.00
43153;BME280;28756;49.064;9.290;2023-02-01T01:16:21;99658.06;;;3.16;100.00
43153;BME280;28756;49.064;9.290;2023-02-01T01:18:48;99652.13;;;3.14;100.00
43153;BME280;28756;49.064;9.290;2023-02-01T01:21:15;99666.69;;;3.15;100.00
43153;BME280;28756;49.064;9.290;2023-02-01T01:23:42;99664.84;;;3.22;100.00
43153;BME280;28756;49.064;9.290;2023-02-01T01:26:17;99668.25;;;3.24;100.00
43153;BME280;28756;49.064;9.290;2023-02-01T01:28:43;99665.72;;;3.22;100.00
43153;BME280;28756;49.064;9.290;2023-02-01T01:31:11;99657.03;;;3.28;100.00
43153;BME280;28756;49.064;9.290;2023-02-01T01:33:37;99664.84;;;3.22;100.00
43153;BME280;28756;49.064;9.290;2023-02-01T01:36:08;99670.75;;;3.28;100.00
43153;BME280;28756;49.064;9.290;2023-02-01T01:38:39;99669.91;;;3.28;100.00
43153;BME280;28756;49.064;9.290;2023-02-01T01:41:05;99668.13;;;3.31;100.00
43153;BME280;28756;49.064;9.290;2023-02-01T01:43:49;99669.03;;;3.30;100.00
43153;BME280;28756;49.064;9.290;2023-02-01T01:46:22;99654.41;;;3.32;100.00
43153;BME280;28756;49.064;9.290;2023-02-01T01:48:55;99649.28;;;3.31;100.00
43153;BME280;28756;49.064;9.290;2023-02-01T01:51:24;99639.84;;;3.31;100.00
43153;BME280;28756;49.064;9.290;2023-02-01T01:56:32;99631.38;;;3.26;100.00
43153;BME280;28756;49.064;9.290;2023-02-01T01:58:59;99636.44;;;3.31;100.00
43153;BME280;28756;49.064;9.290;2023-02-01T02:01:26;99629.38;;;3.44;100.00
43153;BME280;28756;49.064;9.290;2023-02-01T02:03:53;99633.75;;;3.39;100.00
43153;BME280;28756;49.064;9.290;2023-02-01T02:06:50;99633.78;;;3.37;100.00
43153;BME280;28756;49.064;9.290;2023-02-01T02:09:18;99635.53;;;3.35;100.00
43153;BME280;28756;49.064;9.290;2023-02-01T02:11:44;99628.63;;;3.37;100.00
43153;BME280;28756;49.064;9.290;2023-02-01T02:14:12;99614.06;;;3.36;100.00
43153;BME280;28756;49.064;9.290;2023-02-01T02:23:23;99602.00;;;3.41;100.00
43153;BME280;28756;49.064;9.290;2023-02-01T02:35:51;99602.94;;;3.36;100.00
43153;BME280;28756;49.064;9.290;2023-02-01T02:41:37;99605.44;;;3.40;100.00
43153;BME280;28756;49.064;9.290;2023-02-01T02:47:56;99606.34;;;3.38;100.00
43153;BME280;28756;49.064;9.290;2023-02-01T02:56:35;99602.88;;;3.40;100.00
43153;BME280;28756;49.064;9.290;2023-02-01T02:59:23;99588.31;;;3.39;100.00
43153;BME280;28756;49.064;9.290;2023-02-01T03:02:10;99576.28;;;3.41;100.00
43153;BME280;28756;49.064;9.290;2023-02-01T03:04:55;99579.78;;;3.37;100.00
43153;BME280;28756;49.064;9.290;2023-02-01T03:12:55;99571.19;;;3.38;100.00
43153;BME280;28756;49.064;9.290;2023-02-01T03:18:10;99564.16;;;3.48;100.00
43153;BME280;28756;49.064;9.290;2023-02-01T03:20:43;99572.84;;;3.42;100.00
43153;BME280;28756;49.064;9.290;2023-02-01T03:23:11;99577.88;;;3.48;100.00
43153;BME280;28756;49.064;9.290;2023-02-01T03:25:40;99583.19;;;3.39;100.00
43153;BME280;28756;49.064;9.290;2023-02-01T03:28:08;99599.31;;;3.47;100.00
43153;BME280;28756;49.064;9.290;2023-02-01T03:30:43;99596.81;;;3.43;100.00
43153;BME280;28756;49.064;9.290;2023-02-01T03:33:14;99590.81;;;3.44;100.00
43153;BME280;28756;49.064;9.290;2023-02-01T03:36:17;99597.69;;;3.42;100.00
43153;BME280;28756;49.064;9.290;2023-02-01T03:42:19;99595.09;;;3.43;100.00
43153;BME280;28756;49.064;9.290;2023-02-01T03:44:53;99591.56;;;3.49;100.00
43153;BME280;28756;49.064;9.290;2023-02-01T03:47:34;99575.28;;;3.50;100.00
43153;BME280;28756;49.064;9.290;2023-02-01T03:50:09;99569.41;;;3.42;100.00
43153;BME280;28756;49.064;9.290;2023-02-01T03:52:52;99571.94;;;3.43;100.00
43153;BME280;28756;49.064;9.290;2023-02-01T03:55:22;99575.34;;;3.45;100.00
43153;BME280;28756;49.064;9.290;2023-02-01T03:57:58;99582.16;;;3.50;100.00
43153;BME280;28756;49.064;9.290;2023-02-01T04:00:27;99590.75;;;3.48;100.00
43153;BME280;28756;49.064;9.290;2023-02-01T04:02:53;99590.81;;;3.44;100.00
43153;BME280;28756;49.064;9.290;2023-02-01T04:05:20;99600.03;;;3.56;100.00
43153;BME280;28756;49.064;9.290;2023-02-01T04:07:46;99592.25;;;3.60;100.00
43153;BME280;28756;49.064;9.290;2023-02-01T04:10:12;99594.78;;;3.62;100.00
43153;BME280;28756;49.064;9.290;2023-02-01T04:12:39;99592.25;;;3.60;100.00
43153;BME280;28756;49.064;9.290;2023-02-01T04:15:05;99602.56;;;3.59;100.00
43153;BME280;28756;49.064;9.290;2023-02-01T04:17:31;99608.53;;;3.59;100.00
43153;BME280;28756;49.064;9.290;2023-02-01T04:19:57;99618.75;;;3.64;100.00
43153;BME280;28756;49.064;9.290;2023-02-01T04:22:23;99621.28;;;3.66;100.00
43153;BME280;28756;49.064;9.290;2023-02-01T04:24:48;99621.28;;;3.66;100.00
43153;BME280;28756;49.064;9.290;2023-02-01T04:27:14;99613.53;;;3.67;100.00
43153;BME280;28756;49.064;9.290;2023-02-01T04:29:40;99611.88;;;3.66;100.00
43153;BME280;28756;49.064;9.290;2023-02-01T04:32:06;99602.47;;;3.63;100.00
43153;BME280;28756;49.064;9.290;2023-02-01T04:34:32;99607.53;;;3.68;100.00
43153;BME280;28756;49.064;9.290;2023-02-01T04:36:58;99608.47;;;3.64;100.00
43153;BME280;28756;49.064;9.290;2023-02-01T04:39:24;99593.06;;;3.62;100.00
43153;BME280;28756;49.064;9.290;2023-02-01T04:41:50;99590.50;;;3.62;100.00
43153;BME280;28756;49.064;9.290;2023-02-01T04:44:17;99590.50;;;3.61;100.00
43153;BME280;28756;49.064;9.290;2023-02-01T04:46:46;99584.50;;;3.62;100.00
43153;BME280;28756;49.064;9.290;2023-02-01T04:49:13;99588.00;;;3.56;100.00
43153;BME280;28756;49.064;9.290;2023-02-01T04:51:40;99591.28;;;3.66;100.00
43153;BME280;28756;49.064;9.290;2023-02-01T04:54:06;99593.81;;;3.68;100.00
43153;BME280;28756;49.064;9.290;2023-02-01T04:56:32;99590.53;;;3.59;100.00
43153;BME280;28756;49.064;9.290;2023-02-01T04:58:57;99584.56;;;3.59;100.00
43153;BME280;28756;49.064;9.290;2023-02-01T05:01:23;99581.91;;;3.62;100.00
43153;BME280;28756;49.064;9.290;2023-02-01T05:03:50;99588.00;;;3.56;100.00
43153;BME280;28756;49.064;9.290;2023-02-01T05:06:16;99583.50;;;3.69;100.00
43153;BME280;28756;49.064;9.290;2023-02-01T05:08:42;99585.25;;;3.67;100.00
43153;BME280;28756;49.064;9.290;2023-02-01T05:11:08;99577.44;;;3.72;100.00
43153;BME280;28756;49.064;9.290;2023-02-01T05:13:54;99579.34;;;3.62;100.00
43153;BME280;28756;49.064;9.290;2023-02-01T05:16:19;99589.59;;;3.63;100.00
43153;BME280;28756;49.064;9.290;2023-02-01T05:18:45;99585.28;;;3.66;100.00
43153;BME280;28756;49.064;9.290;2023-02-01T05:21:11;99578.31;;;3.72;100.00
43153;BME280;28756;49.064;9.290;2023-02-01T05:23:37;99580.94;;;3.69;100.00
43153;BME280;28756;49.064;9.290;2023-02-01T05:26:22;99575.91;;;3.63;100.00
43153;BME280;28756;49.064;9.290;2023-02-01T05:28:48;99567.44;;;3.58;100.00
43153;BME280;28756;49.064;9.290;2023-02-01T05:31:14;99576.84;;;3.57;100.00
43153;BME280;28756;49.064;9.290;2023-02-01T05:33:40;99577.81;;;3.53;100.00
43153;BME280;28756;49.064;9.290;2023-02-01T05:36:05;99588.00;;;3.56;100.00
43153;BME280;28756;49.064;9.290;2023-02-01T05:38:32;99584.53;;;3.60;100.00
43153;BME280;28756;49.064;9.290;2023-02-01T05:40:57;99602.56;;;3.57;100.00
43153;BME280;28756;49.064;9.290;2023-02-01T05:43:23;99599.13;;;3.58;100.00
43153;BME280;28756;49.064;9.290;2023-02-01T05:45:49;99611.94;;;3.61;100.00
43153;BME280;28756;49.064;9.290;2023-02-01T05:48:16;99614.56;;;3.58;100.00
43153;BME280;28756;49.064;9.290;2023-02-01T05:50:43;99614.59;;;3.57;100.00
43153;BME280;28756;49.064;9.290;2023-02-01T05:53:09;99610.97;;;3.67;100.00
43153;BME280;28756;49.064;9.290;2023-02-01T05:55:35;99603.38;;;3.61;100.00
43153;BME280;28756;49.064;9.290;2023-02-01T05:58:01;99614.59;;;3.57;100.00
43153;BME280;28756;49.064;9.290;2023-02-01T06:00:27;99610.25;;;3.60;100.00
43153;BME280;28756;49.064;9.290;2023-02-01T06:02:53;99613.66;;;3.61;100.00
43153;BME280;28756;49.064;9.290;2023-02-01T06:05:18;99612.91;;;3.56;100.00
43153;BME280;28756;49.064;9.290;2023-02-01T06:07:44;99612.84;;;3.57;100.00
43153;BME280;28756;49.064;9.290;2023-02-01T06:10:10;99606.84;;;3.58;100.00
43153;BME280;28756;49.064;9.290;2023-02-01T06:12:36;99604.31;;;3.57;100.00
43153;BME280;28756;49.064;9.290;2023-02-01T06:15:02;99603.28;;;3.66;100.00
43153;BME280;28756;49.064;9.290;2023-02-01T06:17:28;99600.78;;;3.61;100.00
43153;BME280;28756;49.064;9.290;2023-02-01T06:19:54;99598.22;;;3.61;100.00
43153;BME280;28756;49.064;9.290;2023-02-01T06:22:20;99597.44;;;3.59;100.00
43153;BME280;28756;49.064;9.290;2023-02-01T06:24:47;99583.75;;;3.55;100.00
43153;BME280;28756;49.064;9.290;2023-02-01T06:27:13;99585.34;;;3.62;100.00
43153;BME280;28756;49.064;9.290;2023-02-01T06:29:38;99582.66;;;3.67;100.00
43153;BME280;28756;49.064;9.290;2023-02-01T06:32:04;99578.47;;;3.63;100.00
43153;BME280;28756;49.064;9.290;2023-02-01T06:34:30;99583.66;;;3.61;100.00
43153;BME280;28756;49.064;9.290;2023-02-01T06:36:56;99580.22;;;3.61;100.00
43153;BME280;28756;49.064;9.290;2023-02-01T06:39:21;99591.41;;;3.58;100.00
43153;BME280;28756;49.064;9.290;2023-02-01T06:41:48;99609.38;;;3.60;100.00
43153;BME280;28756;49.064;9.290;2023-02-01T06:44:15;99600.78;;;3.61;100.00
43153;BME280;28756;49.064;9.290;2023-02-01T06:46:41;99619.66;;;3.60;100.00
43153;BME280;28756;49.064;9.290;2023-02-01T06:49:06;99611.00;;;3.66;100.00
43153;BME280;28756;49.064;9.290;2023-02-01T06:51:33;99613.53;;;3.69;100.00
43153;BME280;28756;49.064;9.290;2023-02-01T06:53:58;99629.81;;;3.69;100.00
43153;BME280;28756;49.064;9.290;2023-02-01T06:56:24;99624.78;;;3.63;100.00
43153;BME280;28756;49.064;9.290;2023-02-01T06:58:50;99632.50;;;3.63;100.00
43153;BME280;28756;49.064;9.290;2023-02-01T07:01:16;99629.97;;;3.60;100.00
43153;BME280;28756;49.064;9.290;2023-02-01T07:03:42;99638.47;;;3.63;100.00
43153;BME280;28756;49.064;9.290;2023-02-01T07:06:12;99629.91;;;3.63;100.00
43153;BME280;28756;49.064;9.290;2023-02-01T07:08:37;99636.69;;;3.67;100.00
43153;BME280;28756;49.064;9.290;2023-02-01T07:11:11;99643.53;;;3.68;100.00
43153;BME280;28756;49.064;9.290;2023-02-01T07:13:38;99641.84;;;3.69;100.00
43153;BME280;28756;49.064;9.290;2023-02-01T07:16:07;99643.56;;;3.67;100.00
43153;BME280;28756;49.064;9.290;2023-02-01T07:18:34;99642.69;;;3.68;100.00
43153;BME280;28756;49.064;9.290;2023-02-01T07:21:00;99629.88;;;3.66;100.00
43153;BME280;28756;49.064;9.290;2023-02-01T07:23:27;99631.59;;;3.66;100.00
43153;BME280;28756;49.064;9.290;2023-02-01T07:26:05;99629.00;;;3.66;100.00
43153;BME280;28756;49.064;9.290;2023-02-01T07:28:34;99641.88;;;3.66;100.00
43153;BME280;28756;49.064;9.290;2023-02-01T07:31:06;99637.56;;;3.68;100.00
43153;BME280;28756;49.064;9.290;2023-02-01T07:33:33;99641.94;;;3.62;100.00
43153;BME280;28756;49.064;9.290;2023-02-01T07:36:02;99658.31;;;3.55;100.00
43153;BME280;28756;49.064;9.290;2023-02-01T07:38:29;99664.34;;;3.56;100.00
43153;BME280;28756;49.064;9.290;2023-02-01T07:41:03;99658.31;;;3.57;100.00
43153;BME280;28756;49.064;9.290;2023-02-01T07:43:30;99665.13;;;3.59;100.00
43153;BME280;28756;49.064;9.290;2023-02-01T07:45:56;99673.59;;;3.64;100.00
43153;BME280;28756;49.064;9.290;2023-02-01T07:48:23;99663.34;;;3.63;100.00
43153;BME280;28756;49.064;9.290;2023-02-01T07:51:01;99668.59;;;3.57;100.00
43153;BME280;28756;49.064;9.290;2023-02-01T07:53:29;99658.69;;;3.35;100.00
43153;BME280;28756;49.064;9.290;2023-02-01T07:55:55;99657.94;;;3.27;100.00
43153;BME280;28756;49.064;9.290;2023-02-01T07:58:23;99653.63;;;3.27;100.00
43153;BME280;28756;49.064;9.290;2023-02-01T08:00:50;99657.03;;;3.28;100.00
43153;BME280;28756;49.064;9.290;2023-02-01T08:03:35;99655.31;;;3.30;100.00
43153;BME280;28756;49.064;9.290;2023-02-01T08:06:00;99647.56;;;3.33;100.00
43153;BME280;28756;49.064;9.290;2023-02-01T08:08:26;99638.03;;;3.38;100.00
43153;BME280;28756;49.064;9.290;2023-02-01T08:10:58;99632.00;;;3.42;100.00
43153;BME280;28756;49.064;9.290;2023-02-01T08:13:23;99619.94;;;3.44;100.00
43153;BME280;28756;49.064;9.290;2023-02-01T08:15:49;99640.53;;;3.43;100.00
43153;BME280;28756;49.064;9.290;2023-02-01T08:18:15;99649.81;;;3.52;100.00
43153;BME280;28756;49.064;9.290;2023-02-01T08:20:44;99648.13;;;3.51;100.00
43153;BME280;28756;49.064;9.290;2023-02-01T08:23:12;99653.25;;;3.52;100.00
43153;BME280;28756;49.064;9.290;2023-02-01T08:25:38;99658.28;;;3.58;100.00
43153;BME280;28756;49.064;9.290;2023-02-01T08:28:06;99671.84;;;3.68;100.00
43153;BME280;28756;49.064;9.290;2023-02-01T08:30:32;99666.56;;;3.76;100.00
43153;BME280;28756;49.064;9.290;2023-02-01T08:32:58;99666.50;;;3.79;100.00
43153;BME280;28756;49.064;9.290;2023-02-01T08:35:23;99672.56;;;3.76;100.00
43153;BME280;28756;49.064;9.290;2023-02-01T08:37:50;99663.91;;;3.81;100.00
43153;BME280;28756;49.064;9.290;2023-02-01T08:40:17;99661.34;;;3.79;100.00
43153;BME280;28756;49.064;9.290;2023-02-01T08:42:42;99663.94;;;3.79;100.00
43153;BME280;28756;49.064;9.290;2023-02-01T08:45:23;99670.88;;;3.74;100.00
43153;BME280;28756;49.064;9.290;2023-02-01T08:47:53;99665.81;;;3.71;100.00
43153;BME280;28756;49.064;9.290;2023-02-01T08:50:20;99673.53;;;3.69;100.00
43153;BME280;28756;49.064;9.290;2023-02-01T08:52:46;99676.78;;;3.79;100.00
43153;BME280;28756;49.064;9.290;2023-02-01T08:55:13;99681.06;;;3.82;100.00
43153;BME280;28756;49.064;9.290;2023-02-01T08:57:40;99674.97;;;3.86;100.00
43153;BME280;28756;49.064;9.290;2023-02-01T09:00:10;99678.28;;;3.91;100.00
43153;BME280;28756;49.064;9.290;2023-02-01T09:02:36;99664.59;;;3.90;100.00
43153;BME280;28756;49.064;9.290;2023-02-01T09:05:03;99670.63;;;3.89;100.00
43153;BME280;28756;49.064;9.290;2023-02-01T09:07:29;99674.84;;;3.92;100.00
43153;BME280;28756;49.064;9.290;2023-02-01T09:09:55;99659.34;;;3.97;100.00
43153;BME280;28756;49.064;9.290;2023-02-01T09:12:22;99667.06;;;3.98;100.00
43153;BME280;28756;49.064;9.290;2023-02-01T09:14:48;99669.50;;;4.04;100.00
43153;BME280;28756;49.064;9.290;2023-02-01T09:17:14;99669.38;;;4.10;100.00
43153;BME280;28756;49.064;9.290;2023-02-01T09:19:40;99661.53;;;4.18;100.00
43153;BME280;28756;49.064;9.290;2023-02-01T09:22:06;99675.19;;;4.20;100.00
43153;BME280;28756;49.064;9.290;2023-02-01T09:24:31;99675.16;;;4.23;100.00
43153;BME280;28756;49.064;9.290;2023-02-01T09:26:57;99661.41;;;4.23;100.00
43153;BME280;28756;49.064;9.290;2023-02-01T09:29:23;99670.78;;;4.27;100.00
43153;BME280;28756;49.064;9.290;2023-02-01T09:31:49;99656.91;;;4.34;100.00
43153;BME280;28756;49.064;9.290;2023-02-01T09:34:15;99673.91;;;4.43;100.00
43153;BME280;28756;49.064;9.290;2023-02-01T09:36:41;99670.41;;;4.47;100.00
43153;BME280;28756;49.064;9.290;2023-02-01T09:39:07;99675.59;;;4.44;100.00
43153;BME280;28756;49.064;9.290;2023-02-01T09:45:04;99691.13;;;4.39;100.00
43153;BME280;28756;49.064;9.290;2023-02-01T09:47:31;99687.78;;;4.37;100.00
43153;BME280;28756;49.064;9.290;2023-02-01T09:50:12;99674.16;;;4.31;100.00
43153;BME280;28756;49.064;9.290;2023-02-01T09:53:04;99690.47;;;4.30;100.00
43153;BME280;28756;49.064;9.290;2023-02-01T09:55:44;99699.69;;;4.41;100.00
43153;BME280;28756;49.064;9.290;2023-02-01T10:01:15;99696.97;;;4.49;100.00
43153;BME280;28756;49.064;9.290;2023-02-01T10:03:43;99704.63;;;4.52;100.00
43153;BME280;28756;49.064;9.290;2023-02-01T10:09:20;99706.38;;;4.52;100.00
43153;BME280;28756;49.064;9.290;2023-02-01T10:12:42;99707.41;;;4.41;100.00
43153;BME280;28756;49.064;9.290;2023-02-01T10:15:44;99718.59;;;4.40;100.00
43153;BME280;28756;49.064;9.290;2023-02-01T10:18:49;99718.41;;;4.50;100.00
43153;BME280;28756;49.064;9.290;2023-02-01T10:21:51;99727.97;;;4.43;100.00
43153;BME280;28756;49.064;9.290;2023-02-01T10:24:47;99726.28;;;4.42;100.00
43153;BME280;28756;49.064;9.290;2023-02-01T10:27:28;99730.63;;;4.40;100.00
43153;BME280;28756;49.064;9.290;2023-02-01T10:30:06;99734.88;;;4.42;100.00
43153;BME280;28756;49.064;9.290;2023-02-01T10:32:41;99736.50;;;4.47;100.00
43153;BME280;28756;49.064;9.290;2023-02-01T10:35:24;99737.25;;;4.53;100.00
43153;BME280;28756;49.064;9.290;2023-02-01T10:37:52;99737.28;;;4.50;100.00
43153;BME280;28756;49.064;9.290;2023-02-01T10:40:24;99733.88;;;4.50;100.00
43153;BME280;28756;49.064;9.290;2023-02-01T10:43:00;99732.91;;;4.54;100.00
43153;BME280;28756;49.064;9.290;2023-02-01T10:45:30;99714.88;;;4.55;100.00
43153;BME280;28756;49.064;9.290;2023-02-01T10:47:59;99728.59;;;4.57;100.00
43153;BME280;28756;49.064;9.290;2023-02-01T10:53:55;99730.47;;;4.48;100.00
43153;BME280;28756;49.064;9.290;2023-02-01T10:56:27;99728.03;;;4.41;100.00
43153;BME280;28756;49.064;9.290;2023-02-01T10:59:13;99716.88;;;4.41;100.00
43153;BME280;28756;49.064;9.290;2023-02-01T11:01:42;99710.59;;;4.54;100.00
43153;BME280;28756;49.064;9.290;2023-02-01T11:04:15;99702.75;;;4.61;100.00
43153;BME280;28756;49.064;9.290;2023-02-01T11:06:49;99701.03;;;4.59;100.00
43153;BME280;28756;49.064;9.290;2023-02-01T11:09:22;99691.59;;;4.60;100.00
43153;BME280;28756;49.064;9.290;2023-02-01T11:14:39;99695.66;;;4.70;100.00
43153;BME280;28756;49.064;9.290;2023-02-01T11:19:59;99681.25;;;4.62;100.00
43153;BME280;28756;49.064;9.290;2023-02-01T11:22:26;99678.75;;;4.58;100.00
43153;BME280;28756;49.064;9.290;2023-02-01T11:24:54;99664.19;;;4.57;100.00
43153;BME280;28756;49.064;9.290;2023-02-01T11:27:22;99657.25;;;4.61;100.00
43153;BME280;28756;49.064;9.290;2023-02-01T11:29:53;99657.19;;;4.63;100.00
43153;BME280;28756;49.064;9.290;2023-02-01T11:32:22;99654.53;;;4.67;100.00
43153;BME280;28756;49.064;9.290;2023-02-01T11:35:04;99646.91;;;4.63;100.00
43153;BME280;28756;49.064;9.290;2023-02-01T11:37:39;99623.63;;;4.67;100.00
43153;BME280;28756;49.064;9.290;2023-02-01T11:42:59;99634.91;;;4.62;100.00
43153;BME280;28756;49.064;9.290;2023-02-01T11:45:30;99630.69;;;4.57;100.00
43153;BME280;28756;49.064;9.290;2023-02-01T11:47:58;99618.63;;;4.59;100.00
43153;BME280;28756;49.064;9.290;2023-02-01T11:59:19;99621.81;;;4.71;100.00
43153;BME280;28756;49.064;9.290;2023-02-01T12:07:45;99607.88;;;4.81;100.00
43153;BME280;28756;49.064;9.290;2023-02-01T12:10:40;99622.56;;;4.76;100.00
43153;BME280;28756;49.064;9.290;2023-02-01T12:17:12;99620.22;;;4.65;100.00
43153;BME280;28756;49.064;9.290;2023-02-01T12:26:20;99630.72;;;4.56;100.00
43153;BME280;28756;49.064;9.290;2023-02-01T12:35:44;99638.47;;;4.54;100.00
43153;BME280;28756;49.064;9.290;2023-02-01T12:38:29;99638.47;;;4.54;100.00
43153;BME280;28756;49.064;9.290;2023-02-01T12:43:58;99641.97;;;4.52;100.00
43153;BME280;28756;49.064;9.290;2023-02-01T12:46:43;99645.44;;;4.51;100.00
43153;BME280;28756;49.064;9.290;2023-02-01T12:49:22;99642.91;;;4.48;100.00
43153;BME280;28756;49.064;9.290;2023-02-01T12:52:00;99642.09;;;4.46;100.00
43153;BME280;28756;49.064;9.290;2023-02-01T12:54:45;99638.56;;;4.50;100.00
43153;BME280;28756;49.064;9.290;2023-02-01T12:57:21;99623.94;;;4.52;100.00
43153;BME280;28756;49.064;9.290;2023-02-01T13:06:08;99623.88;;;4.55;100.00
43153;BME280;28756;49.064;9.290;2023-02-01T13:09:03;99620.50;;;4.53;100.00
43153;BME280;28756;49.064;9.290;2023-02-01T13:11:38;99611.94;;;4.51;100.00
43153;BME280;28756;49.064;9.290;2023-02-01T13:17:04;99605.00;;;4.54;100.00
43153;BME280;28756;49.064;9.290;2023-02-01T13:19:57;99607.63;;;4.53;100.00
43153;BME280;28756;49.064;9.290;2023-02-01T13:23:23;99596.44;;;4.52;100.00
43153;BME280;28756;49.064;9.290;2023-02-01T13:25:52;99597.31;;;4.53;100.00
43153;BME280;28756;49.064;9.290;2023-02-01T13:28:55;99591.16;;;4.58;100.00
43153;BME280;28756;49.064;9.290;2023-02-01T13:34:30;99586.69;;;4.67;100.00
43153;BME280;28756;49.064;9.290;2023-02-01T13:37:21;99584.94;;;4.69;100.00
43153;BME280;28756;49.064;9.290;2023-02-01T13:40:30;99591.03;;;4.65;100.00
43153;BME280;28756;49.064;9.290;2023-02-01T13:43:00;99580.56;;;4.72;100.00
43153;BME280;28756;49.064;9.290;2023-02-01T13:45:31;99575.44;;;4.71;100.00
43153;BME280;28756;49.064;9.290;2023-02-01T13:48:01;99569.50;;;4.67;100.00
43153;BME280;28756;49.064;9.290;2023-02-01T13:50:38;99564.50;;;4.61;100.00
43153;BME280;28756;49.064;9.290;2023-02-01T13:55:40;99565.44;;;4.57;100.00
43153;BME280;28756;49.064;9.290;2023-02-01T13:58:18;99559.50;;;4.53;100.00
43153;BME280;28756;49.064;9.290;2023-02-01T14:00:45;99568.16;;;4.51;100.00
43153;BME280;28756;49.064;9.290;2023-02-01T14:03:18;99567.53;;;4.41;100.00
43153;BME280;28756;49.064;9.290;2023-02-01T14:08:21;99576.13;;;4.38;100.00
43153;BME280;28756;49.064;9.290;2023-02-01T14:10:57;99580.41;;;4.39;100.00
43153;BME280;28756;49.064;9.290;2023-02-01T14:13:42;99577.81;;;4.41;100.00
43153;BME280;28756;49.064;9.290;2023-02-01T14:16:16;99581.09;;;4.48;100.00
43153;BME280;28756;49.064;9.290;2023-02-01T14:21:34;99588.81;;;4.48;100.00
43153;BME280;28756;49.064;9.290;2023-02-01T14:26:52;99605.25;;;4.42;100.00
43153;BME280;28756;49.064;9.290;2023-02-01T14:29:33;99607.91;;;4.39;100.00
43153;BME280;28756;49.064;9.290;2023-02-01T14:39:52;99607.16;;;4.34;100.00
43153;BME280;28756;49.064;9.290;2023-02-01T14:42:44;99600.22;;;4.36;100.00
43153;BME280;28756;49.064;9.290;2023-02-01T15:01:30;99609.75;;;4.32;100.00
43153;BME280;28756;49.064;9.290;2023-02-01T15:04:10;99609.88;;;4.26;100.00
43153;BME280;28756;49.064;9.290;2023-02-01T15:07:05;99609.91;;;4.23;100.00
43153;BME280;28756;49.064;9.290;2023-02-01T15:09:41;99617.59;;;4.26;100.00
43153;BME280;28756;49.064;9.290;2023-02-01T15:14:47;99617.59;;;4.26;100.00
43153;BME280;28756;49.064;9.290;2023-02-01T15:17:24;99614.16;;;4.27;100.00
43153;BME280;28756;49.064;9.290;2023-02-01T15:22:20;99613.22;;;4.30;100.00
43153;BME280;28756;49.064;9.290;2023-02-01T15:24:59;99621.69;;;4.35;100.00
43153;BME280;28756;49.064;9.290;2023-02-01T15:27:27;99609.66;;;4.37;100.00
43153;BME280;28756;49.064;9.290;2023-02-01T15:29:53;99610.66;;;4.30;100.00
43153;BME280;28756;49.064;9.290;2023-02-01T15:32:49;99603.75;;;4.30;100.00
43153;BME280;28756;49.064;9.290;2023-02-01T15:35:42;99617.56;;;4.27;100.00
43153;BME280;28756;49.064;9.290;2023-02-01T15:38:31;99615.75;;;4.33;100.00
43153;BME280;28756;49.064;9.290;2023-02-01T15:41:01;99622.53;;;4.37;100.00
43153;BME280;28756;49.064;9.290;2023-02-01T15:43:30;99631.22;;;4.33;100.00
43153;BME280;28756;49.064;9.290;2023-02-01T15:46:03;99634.66;;;4.32;100.00
43153;BME280;28756;49.064;9.290;2023-02-01T15:48:52;99623.50;;;4.31;100.00
43153;BME280;28756;49.064;9.290;2023-02-01T15:51:25;99616.47;;;4.39;100.00
43153;BME280;28756;49.064;9.290;2023-02-01T15:53:56;99635.34;;;4.40;100.00